Time;durP1;ratioP1;P1;durP2;ratioP2;P2;SDS_P1;SDS_P2;PMS_P1;PMS_P2;Temp;Humidity;BMP_temperature;BMP_pressure;BME280_temperature;BME280_humidity;BME280_pressure;Samples;Min_cycle;Max_cycle;Signal;HPM_P1;HPM_P2
2023/07/10 00:01:12;;;;;;;;;;;23.20;82.20;;;;;;5089382;28;19916;-69
2023/07/10 00:03:37;;;;;;;;;;;23.10;82.10;;;;;;5092117;28;19972;-70
2023/07/10 00:06:05;;;;;;;;;;;23.10;82.10;;;;;;5117127;27;20588;-70
2023/07/10 00:08:30;;;;;;;;;;;23.10;82.20;;;;;;5128445;27;20427;-70
2023/07/10 00:10:57;;;;;;;;;;;23.10;82.40;;;;;;5121515;27;19914;-69
2023/07/10 00:13:23;;;;;;;;;;;23.10;82.50;;;;;;5107582;28;20568;-70
2023/07/10 00:15:50;;;;;;;;;;;23.00;82.20;;;;;;5114583;27;19972;-69
2023/07/10 00:18:17;;;;;;;;;;;23.10;82.60;;;;;;5129938;27;20303;-70
2023/07/10 00:20:45;;;;;;;;;;;23.00;82.30;;;;;;5129741;27;19911;-69
2023/07/10 00:23:10;;;;;;;;;;;23.00;82.30;;;;;;5129793;27;19927;-70
2023/07/10 00:25:36;;;;;;;;;;;23.00;82.60;;;;;;5115014;27;19911;-70
2023/07/10 00:28:02;;;;;;;;;;;23.00;82.60;;;;;;5130042;27;19907;-70
2023/07/10 00:30:27;;;;;;;;;;;23.00;82.70;;;;;;5109062;28;20447;-70
2023/07/10 00:32:54;;;;;;;;;;;23.00;82.70;;;;;;5109219;28;20006;-69
2023/07/10 00:35:20;;;;;;;;;;;23.00;82.80;;;;;;5109133;27;19908;-70
2023/07/10 00:37:47;;;;;;;;;;;23.00;82.90;;;;;;5109258;28;19911;-69
2023/07/10 00:40:20;;;;;;;;;;;22.90;82.90;;;;;;5109199;28;19911;-69
2023/07/10 00:42:47;;;;;;;;;;;22.90;83.00;;;;;;5109162;28;19935;-70
2023/07/10 00:45:13;;;;;;;;;;;22.90;82.80;;;;;;5107558;27;19914;-70
2023/07/10 00:47:41;;;;;;;;;;;22.80;82.70;;;;;;5129111;27;19911;-70
2023/07/10 00:50:16;;;;;;;;;;;22.90;82.90;;;;;;5129435;27;19911;-70
2023/07/10 00:52:43;;;;;;;;;;;22.90;83.00;;;;;;5129724;27;20328;-70
2023/07/10 00:55:15;;;;;;;;;;;22.80;82.90;;;;;;5115021;27;19919;-69
2023/07/10 00:57:42;;;;;;;;;;;22.80;82.80;;;;;;5129152;28;20300;-70
2023/07/10 01:00:27;;;;;;;;;;;22.80;82.80;;;;;;5124537;27;19915;-70
2023/07/10 01:02:52;;;;;;;;;;;22.80;83.00;;;;;;5129816;27;20030;-70
2023/07/10 01:05:18;;;;;;;;;;;22.80;83.10;;;;;;5116522;27;20029;-70
2023/07/10 01:07:56;;;;;;;;;;;22.80;83.00;;;;;;5125410;27;19912;-70
2023/07/10 01:10:21;;;;;;;;;;;22.80;83.00;;;;;;5112872;28;19915;-70
2023/07/10 01:12:47;;;;;;;;;;;22.80;83.20;;;;;;5112433;28;19968;-69
2023/07/10 01:15:14;;;;;;;;;;;22.80;83.00;;;;;;5112868;27;19915;-70
2023/07/10 01:17:39;;;;;;;;;;;22.70;83.20;;;;;;5132617;27;19919;-70
2023/07/10 01:20:25;;;;;;;;;;;22.70;83.20;;;;;;5132131;27;19984;-70
2023/07/10 01:22:50;;;;;;;;;;;22.70;83.10;;;;;;5133428;27;19920;-70
2023/07/10 01:25:16;;;;;;;;;;;22.70;83.20;;;;;;5117833;27;20384;-69
2023/07/10 01:27:41;;;;;;;;;;;22.70;83.20;;;;;;5132093;27;20006;-69
2023/07/10 01:30:26;;;;;;;;;;;22.70;83.10;;;;;;5131609;27;19959;-70
2023/07/10 01:32:52;;;;;;;;;;;22.70;83.30;;;;;;5122579;27;19934;-70
2023/07/10 01:35:18;;;;;;;;;;;22.70;83.30;;;;;;5112140;28;19912;-69
2023/07/10 01:37:43;;;;;;;;;;;22.70;83.20;;;;;;5112699;27;19991;-70
2023/07/10 01:40:13;;;;;;;;;;;22.70;83.20;;;;;;5112351;28;19919;-70
2023/07/10 01:42:38;;;;;;;;;;;22.70;83.30;;;;;;5112287;28;19923;-70
2023/07/10 01:45:04;;;;;;;;;;;22.60;83.30;;;;;;5111975;27;19911;-69
2023/07/10 01:47:30;;;;;;;;;;;22.60;83.40;;;;;;5111956;28;20018;-70
2023/07/10 01:49:57;;;;;;;;;;;22.60;83.10;;;;;;5118171;27;20376;-70
2023/07/10 01:52:23;;;;;;;;;;;22.60;83.20;;;;;;5132856;27;19972;-70
2023/07/10 01:54:49;;;;;;;;;;;22.60;83.50;;;;;;5122263;27;19919;-69
2023/07/10 01:57:15;;;;;;;;;;;22.60;83.50;;;;;;5096438;27;20296;-69
2023/07/10 01:59:40;;;;;;;;;;;22.60;83.10;;;;;;5091622;28;19964;-70
2023/07/10 02:02:06;;;;;;;;;;;22.60;83.20;;;;;;5091752;28;19912;-70
2023/07/10 02:04:32;;;;;;;;;;;22.60;83.20;;;;;;5102152;28;20369;-69
2023/07/10 02:06:57;;;;;;;;;;;22.60;83.50;;;;;;5130970;27;20087;-70
2023/07/10 02:09:23;;;;;;;;;;;22.60;83.40;;;;;;5132770;27;20690;-69
2023/07/10 02:11:49;;;;;;;;;;;22.50;83.60;;;;;;5116162;27;19912;-70
2023/07/10 02:14:14;;;;;;;;;;;22.50;83.60;;;;;;5109311;28;19919;-70
2023/07/10 02:16:40;;;;;;;;;;;22.50;83.50;;;;;;5126950;27;19972;-70
2023/07/10 02:19:07;;;;;;;;;;;22.50;83.70;;;;;;5131888;27;19911;-70
2023/07/10 02:21:33;;;;;;;;;;;22.50;83.70;;;;;;5110358;28;19916;-70
2023/07/10 02:23:58;;;;;;;;;;;22.50;83.50;;;;;;5106093;28;20372;-70
2023/07/10 02:26:24;;;;;;;;;;;22.50;83.50;;;;;;5097079;27;19916;-70
2023/07/10 02:28:49;;;;;;;;;;;22.50;83.90;;;;;;5091091;28;19988;-70
2023/07/10 02:31:15;;;;;;;;;;;22.40;83.70;;;;;;5091165;28;19912;-70
2023/07/10 02:33:40;;;;;;;;;;;22.50;83.80;;;;;;5092942;28;19918;-69
2023/07/10 02:36:06;;;;;;;;;;;22.40;83.70;;;;;;5115925;27;19918;-70
2023/07/10 02:38:32;;;;;;;;;;;22.40;83.90;;;;;;5111615;28;20399;-70
2023/07/10 02:40:59;;;;;;;;;;;22.50;84.00;;;;;;5111377;28;19919;-69
2023/07/10 02:43:24;;;;;;;;;;;22.50;83.80;;;;;;5111457;28;19980;-70
2023/07/10 02:45:50;;;;;;;;;;;22.40;84.00;;;;;;5113735;27;20377;-69
2023/07/10 02:48:16;;;;;;;;;;;22.40;84.00;;;;;;5130287;27;19969;-70
2023/07/10 02:50:42;;;;;;;;;;;22.40;83.90;;;;;;5131561;27;19947;-69
2023/07/10 02:53:07;;;;;;;;;;;22.40;83.80;;;;;;5126724;27;19914;-70
2023/07/10 02:55:33;;;;;;;;;;;22.40;83.90;;;;;;5111343;27;19912;-70
2023/07/10 02:57:59;;;;;;;;;;;22.40;84.10;;;;;;5090547;28;19916;-69
2023/07/10 03:00:24;;;;;;;;;;;22.40;84.00;;;;;;5090396;28;19912;-69
2023/07/10 03:02:52;;;;;;;;;;;22.30;84.00;;;;;;5089083;28;19916;-69
2023/07/10 03:05:18;;;;;;;;;;;22.30;84.00;;;;;;5108362;27;19911;-69
2023/07/10 03:07:43;;;;;;;;;;;22.30;84.00;;;;;;5110844;27;20579;-69
2023/07/10 03:10:09;;;;;;;;;;;22.30;84.00;;;;;;5107461;28;19908;-69
2023/07/10 03:12:35;;;;;;;;;;;22.30;84.10;;;;;;5103565;28;20585;-69
2023/07/10 03:15:00;;;;;;;;;;;22.30;84.00;;;;;;5110353;28;19991;-69
2023/07/10 03:17:25;;;;;;;;;;;22.30;84.00;;;;;;5129327;27;19918;-70
2023/07/10 03:19:51;;;;;;;;;;;22.30;84.00;;;;;;5130939;27;19920;-69
2023/07/10 03:22:17;;;;;;;;;;;22.30;84.20;;;;;;5130825;27;19922;-70
2023/07/10 03:24:42;;;;;;;;;;;22.30;84.10;;;;;;5120523;27;19912;-69
2023/07/10 03:27:08;;;;;;;;;;;22.20;84.10;;;;;;5118311;27;19915;-70
2023/07/10 03:29:35;;;;;;;;;;;22.30;84.30;;;;;;5130901;27;20517;-70
2023/07/10 03:32:00;;;;;;;;;;;22.20;84.40;;;;;;5130909;27;19912;-69
2023/07/10 03:34:26;;;;;;;;;;;22.20;84.50;;;;;;5119544;27;19912;-69
2023/07/10 03:36:53;;;;;;;;;;;22.20;84.20;;;;;;5124908;27;19963;-70
2023/07/10 03:39:18;;;;;;;;;;;22.20;84.30;;;;;;5130891;27;19911;-69
2023/07/10 03:41:44;;;;;;;;;;;22.20;84.30;;;;;;5130665;27;19959;-69
2023/07/10 03:44:10;;;;;;;;;;;22.20;84.30;;;;;;5129854;27;20537;-69
2023/07/10 03:46:36;;;;;;;;;;;22.20;84.30;;;;;;5117088;27;20326;-69
2023/07/10 03:49:02;;;;;;;;;;;22.20;84.40;;;;;;5109951;28;19962;-69
2023/07/10 03:51:27;;;;;;;;;;;22.20;84.30;;;;;;5163621;27;20668;-69
2023/07/10 03:53:53;;;;;;;;;;;22.20;84.30;;;;;;5125764;27;19911;-70
2023/07/10 03:56:18;;;;;;;;;;;22.10;84.30;;;;;;5119275;27;20299;-70
2023/07/10 03:58:44;;;;;;;;;;;22.20;84.30;;;;;;5128862;27;19911;-69
2023/07/10 04:01:10;;;;;;;;;;;22.20;84.30;;;;;;5130355;27;19912;-70
2023/07/10 04:03:36;;;;;;;;;;;22.10;84.30;;;;;;5127480;27;19993;-70
2023/07/10 04:06:02;;;;;;;;;;;22.10;84.30;;;;;;5116329;27;19915;-70
2023/07/10 04:08:29;;;;;;;;;;;22.10;84.40;;;;;;5130465;27;19911;-69
2023/07/10 04:10:56;;;;;;;;;;;22.10;84.40;;;;;;5114804;27;19912;-68
2023/07/10 04:13:23;;;;;;;;;;;22.10;84.40;;;;;;5107888;28;20335;-69
2023/07/10 04:15:58;;;;;;;;;;;22.10;84.40;;;;;;5113050;27;19916;-69
2023/07/10 04:18:25;;;;;;;;;;;22.10;84.50;;;;;;5130144;27;19918;-69
2023/07/10 04:20:51;;;;;;;;;;;22.10;84.40;;;;;;5129909;27;19912;-69
2023/07/10 04:23:18;;;;;;;;;;;22.10;84.30;;;;;;5129733;27;20012;-69
2023/07/10 04:25:44;;;;;;;;;;;22.10;84.40;;;;;;5114370;27;20006;-69
2023/07/10 04:28:10;;;;;;;;;;;22.10;84.30;;;;;;5118504;27;20002;-69
2023/07/10 04:30:35;;;;;;;;;;;22.10;84.50;;;;;;5109386;28;19912;-69
2023/07/10 04:33:01;;;;;;;;;;;22.10;84.40;;;;;;5107874;28;19919;-69
2023/07/10 04:35:26;;;;;;;;;;;22.00;84.50;;;;;;5108982;28;20006;-69
2023/07/10 04:37:52;;;;;;;;;;;22.10;84.80;;;;;;5108493;28;19965;-69
2023/07/10 04:40:17;;;;;;;;;;;22.00;84.60;;;;;;5108978;28;20549;-69
2023/07/10 04:42:43;;;;;;;;;;;22.00;84.80;;;;;;5109067;28;19912;-69
2023/07/10 04:45:08;;;;;;;;;;;22.00;85.00;;;;;;5108849;28;19912;-69
2023/07/10 04:47:34;;;;;;;;;;;22.00;84.70;;;;;;5127527;27;19915;-69
2023/07/10 04:49:59;;;;;;;;;;;22.00;84.80;;;;;;5120457;27;19988;-70
2023/07/10 04:52:25;;;;;;;;;;;22.00;84.60;;;;;;5119196;28;19911;-69
2023/07/10 04:54:51;;;;;;;;;;;21.90;84.50;;;;;;5116612;28;19911;-69
2023/07/10 04:57:17;;;;;;;;;;;21.90;84.50;;;;;;5124623;28;19927;-69
2023/07/10 04:59:43;;;;;;;;;;;21.90;84.60;;;;;;5123881;27;19955;-69
2023/07/10 05:02:08;;;;;;;;;;;22.00;84.60;;;;;;5107375;28;19989;-69
2023/07/10 05:04:34;;;;;;;;;;;21.90;84.70;;;;;;5108880;28;19994;-69
2023/07/10 05:07:02;;;;;;;;;;;21.90;84.80;;;;;;5121967;28;20339;-69
2023/07/10 05:09:31;;;;;;;;;;;21.90;84.80;;;;;;5128138;28;19933;-69
2023/07/10 05:11:57;;;;;;;;;;;21.90;85.30;;;;;;5110775;28;19912;-69
2023/07/10 05:14:24;;;;;;;;;;;21.90;85.30;;;;;;5107337;28;19918;-69
2023/07/10 05:16:50;;;;;;;;;;;21.90;85.00;;;;;;5120060;27;19915;-69
2023/07/10 05:19:15;;;;;;;;;;;21.90;85.00;;;;;;5127373;27;20336;-69
2023/07/10 05:21:41;;;;;;;;;;;21.90;84.90;;;;;;5108679;28;19922;-68
2023/07/10 05:24:06;;;;;;;;;;;21.80;85.10;;;;;;5103316;28;19924;-69
2023/07/10 05:26:32;;;;;;;;;;;21.90;85.00;;;;;;5108565;28;19939;-68
2023/07/10 05:28:57;;;;;;;;;;;21.90;85.40;;;;;;5129246;27;19997;-69
2023/07/10 05:31:25;;;;;;;;;;;21.90;85.10;;;;;;5128231;27;20426;-69
2023/07/10 05:33:50;;;;;;;;;;;21.80;85.20;;;;;;5122939;28;19938;-69
2023/07/10 05:36:16;;;;;;;;;;;21.80;85.30;;;;;;5114781;28;19961;-69
2023/07/10 05:38:42;;;;;;;;;;;21.80;85.10;;;;;;5127738;28;19935;-69
2023/07/10 05:41:08;;;;;;;;;;;21.80;85.10;;;;;;5129365;27;20288;-69
2023/07/10 05:43:34;;;;;;;;;;;21.80;85.60;;;;;;5127554;28;19915;-69
2023/07/10 05:46:00;;;;;;;;;;;21.80;85.50;;;;;;5124853;27;19969;-69
2023/07/10 05:48:26;;;;;;;;;;;21.80;85.40;;;;;;5108483;28;19912;-69
2023/07/10 05:50:51;;;;;;;;;;;21.80;85.40;;;;;;5127633;27;20432;-69
2023/07/10 05:53:17;;;;;;;;;;;21.80;85.10;;;;;;5133074;27;19946;-69
2023/07/10 05:55:44;;;;;;;;;;;21.80;84.90;;;;;;5112880;27;20004;-69
2023/07/10 05:58:09;;;;;;;;;;;21.80;84.90;;;;;;5131141;27;19961;-69
2023/07/10 06:00:35;;;;;;;;;;;21.80;85.00;;;;;;5132660;27;20413;-69
2023/07/10 06:03:00;;;;;;;;;;;21.80;85.20;;;;;;5132625;27;20328;-69
2023/07/10 06:05:26;;;;;;;;;;;21.90;85.10;;;;;;5113615;27;19957;-69
2023/07/10 06:07:51;;;;;;;;;;;21.80;84.90;;;;;;5130938;27;19951;-69
2023/07/10 06:10:17;;;;;;;;;;;21.80;85.10;;;;;;5127088;27;19993;-69
2023/07/10 06:12:42;;;;;;;;;;;21.90;85.10;;;;;;5106905;28;19912;-69
2023/07/10 06:15:09;;;;;;;;;;;21.80;85.10;;;;;;5111542;28;20400;-69
2023/07/10 06:17:34;;;;;;;;;;;21.80;85.10;;;;;;5127837;27;19915;-69
2023/07/10 06:20:00;;;;;;;;;;;21.80;85.00;;;;;;5132201;27;19912;-70
2023/07/10 06:22:25;;;;;;;;;;;21.80;85.00;;;;;;5130768;27;19920;-69
2023/07/10 06:24:51;;;;;;;;;;;21.80;84.90;;;;;;5119199;27;19922;-69
2023/07/10 06:27:16;;;;;;;;;;;21.90;85.10;;;;;;5124877;27;19911;-69
2023/07/10 06:29:42;;;;;;;;;;;21.80;85.30;;;;;;5130656;27;20604;-69
2023/07/10 06:32:08;;;;;;;;;;;21.80;85.00;;;;;;5111479;28;19919;-69
2023/07/10 06:34:33;;;;;;;;;;;21.90;85.20;;;;;;5110158;28;19972;-69
2023/07/10 06:36:59;;;;;;;;;;;21.90;85.70;;;;;;5109845;27;20257;-69
2023/07/10 06:39:26;;;;;;;;;;;21.90;85.30;;;;;;5111523;28;20601;-69
2023/07/10 06:41:52;;;;;;;;;;;22.00;85.30;;;;;;5111216;28;19924;-69
2023/07/10 06:44:17;;;;;;;;;;;21.90;85.20;;;;;;5109853;28;19911;-69
2023/07/10 06:46:43;;;;;;;;;;;21.90;85.10;;;;;;5119218;27;19915;-69
2023/07/10 06:49:08;;;;;;;;;;;21.90;85.00;;;;;;5128243;27;19954;-69
2023/07/10 06:51:35;;;;;;;;;;;21.90;85.10;;;;;;5131785;27;20562;-69
2023/07/10 06:54:03;;;;;;;;;;;21.90;85.00;;;;;;5127419;27;19964;-69
2023/07/10 06:56:29;;;;;;;;;;;21.90;85.60;;;;;;5108281;27;19916;-70
2023/07/10 06:58:54;;;;;;;;;;;21.90;85.10;;;;;;5090485;28;19950;-69
2023/07/10 07:01:19;;;;;;;;;;;21.90;85.20;;;;;;5089591;28;19912;-69
2023/07/10 07:03:45;;;;;;;;;;;21.90;85.10;;;;;;5094183;28;20693;-69
2023/07/10 07:06:10;;;;;;;;;;;21.90;85.00;;;;;;5112467;27;19965;-70
2023/07/10 07:08:36;;;;;;;;;;;21.90;85.00;;;;;;5110925;28;19911;-69
2023/07/10 07:11:02;;;;;;;;;;;22.00;84.90;;;;;;5104541;27;19944;-69
2023/07/10 07:13:28;;;;;;;;;;;22.00;85.00;;;;;;5110251;28;20312;-69
2023/07/10 07:15:55;;;;;;;;;;;22.00;85.00;;;;;;5125659;27;20022;-70
2023/07/10 07:18:21;;;;;;;;;;;22.00;84.80;;;;;;5131097;27;20500;-69
2023/07/10 07:20:47;;;;;;;;;;;22.10;84.70;;;;;;5130931;27;19907;-70
2023/07/10 07:23:12;;;;;;;;;;;22.10;84.70;;;;;;5130963;27;20276;-70
2023/07/10 07:25:39;;;;;;;;;;;22.10;84.80;;;;;;5116420;27;19959;-70
2023/07/10 07:28:04;;;;;;;;;;;22.10;84.90;;;;;;5090104;28;19908;-69
2023/07/10 07:30:30;;;;;;;;;;;22.10;84.60;;;;;;5090035;28;19919;-70
2023/07/10 07:32:56;;;;;;;;;;;22.20;84.50;;;;;;5089786;28;19944;-69
2023/07/10 07:35:22;;;;;;;;;;;22.20;84.60;;;;;;5117155;27;19919;-69
2023/07/10 07:37:47;;;;;;;;;;;22.30;84.50;;;;;;5130527;27;20272;-69
2023/07/10 07:40:16;;;;;;;;;;;22.30;84.40;;;;;;5130623;27;20051;-70
2023/07/10 07:42:45;;;;;;;;;;;22.40;84.50;;;;;;5130545;27;19973;-69
2023/07/10 07:45:11;;;;;;;;;;;22.40;84.40;;;;;;5121788;27;20570;-69
2023/07/10 07:47:37;;;;;;;;;;;22.40;84.10;;;;;;5108452;28;19908;-70
2023/07/10 07:50:02;;;;;;;;;;;22.40;83.90;;;;;;5118517;27;20754;-70
2023/07/10 07:52:28;;;;;;;;;;;22.40;83.80;;;;;;5130595;27;19912;-70
2023/07/10 07:54:53;;;;;;;;;;;22.50;83.80;;;;;;5123768;27;19922;-70
2023/07/10 07:57:22;;;;;;;;;;;22.50;83.90;;;;;;5092613;27;20361;-70
2023/07/10 07:59:48;;;;;;;;;;;22.60;83.80;;;;;;5089488;28;20013;-70
2023/07/10 08:02:14;;;;;;;;;;;22.60;83.50;;;;;;5089167;28;19916;-70
2023/07/10 08:04:41;;;;;;;;;;;22.70;83.60;;;;;;5104175;27;20303;-70
2023/07/10 08:07:07;;;;;;;;;;;22.70;83.40;;;;;;5089045;28;20387;-69
2023/07/10 08:09:33;;;;;;;;;;;22.70;83.30;;;;;;5087996;28;20301;-70
2023/07/10 08:11:58;;;;;;;;;;;22.70;83.30;;;;;;5105258;28;19916;-70
2023/07/10 08:14:24;;;;;;;;;;;22.70;83.40;;;;;;5110438;27;19912;-70
2023/07/10 08:16:49;;;;;;;;;;;22.60;83.40;;;;;;5129924;27;20348;-70
2023/07/10 08:19:15;;;;;;;;;;;22.60;83.30;;;;;;5130100;27;19922;-70
2023/07/10 08:21:40;;;;;;;;;;;22.60;83.40;;;;;;5127563;27;19915;-70
2023/07/10 08:24:06;;;;;;;;;;;22.60;83.00;;;;;;5094045;28;20380;-70
2023/07/10 08:26:31;;;;;;;;;;;22.60;82.90;;;;;;5104169;27;19927;-70
2023/07/10 08:28:57;;;;;;;;;;;22.70;83.70;;;;;;5089010;28;20453;-69
2023/07/10 08:31:24;;;;;;;;;;;22.60;82.80;;;;;;5105238;28;19961;-70
2023/07/10 08:33:49;;;;;;;;;;;22.60;82.90;;;;;;5109232;28;20494;-69
2023/07/10 08:36:15;;;;;;;;;;;22.60;82.50;;;;;;5108729;28;20045;-70
2023/07/10 08:38:40;;;;;;;;;;;22.60;82.80;;;;;;5109146;28;19919;-70
2023/07/10 08:41:17;;;;;;;;;;;22.70;82.80;;;;;;5109058;28;20525;-70
2023/07/10 08:43:43;;;;;;;;;;;22.70;82.80;;;;;;5108814;28;19912;-70
2023/07/10 08:46:17;;;;;;;;;;;22.70;82.80;;;;;;5123947;27;19918;-70
2023/07/10 08:48:49;;;;;;;;;;;22.70;82.70;;;;;;5129792;27;19907;-70
2023/07/10 08:51:14;;;;;;;;;;;22.70;82.80;;;;;;5129535;27;19911;-70
2023/07/10 08:53:41;;;;;;;;;;;22.70;82.60;;;;;;5127887;27;19922;-70
2023/07/10 08:56:15;;;;;;;;;;;22.80;82.50;;;;;;5115443;28;19919;-70
2023/07/10 08:58:40;;;;;;;;;;;22.70;82.80;;;;;;5109165;28;19985;-70
2023/07/10 09:01:29;;;;;;;;;;;22.70;82.70;;;;;;5109061;28;19981;-70
2023/07/10 09:03:58;;;;;;;;;;;22.80;82.50;;;;;;5102956;28;19916;-70
2023/07/10 09:06:35;;;;;;;;;;;22.80;82.20;;;;;;5108805;28;19916;-70
2023/07/10 09:09:01;;;;;;;;;;;22.80;82.00;;;;;;5108892;28;19918;-70
2023/07/10 09:11:28;;;;;;;;;;;22.80;81.90;;;;;;5108050;28;20601;-70
2023/07/10 09:14:00;;;;;;;;;;;22.90;82.00;;;;;;5108505;28;19994;-70
2023/07/10 09:16:26;;;;;;;;;;;22.80;82.00;;;;;;5124871;28;19967;-70
2023/07/10 09:19:01;;;;;;;;;;;22.90;81.30;;;;;;5121784;27;19923;-70
2023/07/10 09:21:30;;;;;;;;;;;22.90;81.30;;;;;;5109085;28;20662;-70
2023/07/10 09:23:56;;;;;;;;;;;23.00;81.20;;;;;;5106188;27;20544;-70
2023/07/10 09:26:25;;;;;;;;;;;23.00;81.40;;;;;;5126797;27;19915;-70
2023/07/10 09:29:11;;;;;;;;;;;23.00;81.30;;;;;;5116075;27;19912;-70
2023/07/10 09:31:54;;;;;;;;;;;22.90;81.10;;;;;;5112347;28;19933;-70
2023/07/10 09:34:21;;;;;;;;;;;23.00;80.80;;;;;;5112294;28;19908;-70
2023/07/10 09:36:54;;;;;;;;;;;23.00;80.90;;;;;;5112377;28;19916;-70
2023/07/10 09:39:20;;;;;;;;;;;23.00;80.70;;;;;;5109631;28;19953;-70
2023/07/10 09:41:47;;;;;;;;;;;23.00;81.10;;;;;;5090503;28;20334;-70
2023/07/10 09:44:20;;;;;;;;;;;23.10;80.70;;;;;;5090673;28;19922;-70
2023/07/10 09:46:46;;;;;;;;;;;23.10;80.60;;;;;;5129301;27;19915;-70
2023/07/10 09:49:13;;;;;;;;;;;23.10;80.50;;;;;;5123717;27;20465;-70
2023/07/10 09:51:48;;;;;;;;;;;23.20;80.40;;;;;;5132658;27;19915;-69
2023/07/10 09:54:14;;;;;;;;;;;23.20;80.40;;;;;;5126312;27;20368;-70
2023/07/10 09:56:40;;;;;;;;;;;23.30;80.20;;;;;;5129391;27;20661;-70
2023/07/10 09:59:18;;;;;;;;;;;23.30;80.00;;;;;;5132735;27;20024;-70
2023/07/10 10:01:46;;;;;;;;;;;23.40;79.80;;;;;;5132399;27;20554;-70
2023/07/10 10:04:11;;;;;;;;;;;23.40;79.80;;;;;;5124686;27;20041;-70
2023/07/10 10:06:40;;;;;;;;;;;23.50;79.30;;;;;;5111861;27;19911;-70
2023/07/10 10:09:20;;;;;;;;;;;23.50;79.30;;;;;;5111771;28;19938;-70
2023/07/10 10:11:46;;;;;;;;;;;23.60;79.30;;;;;;5104186;28;19918;-70
2023/07/10 10:14:21;;;;;;;;;;;23.70;79.10;;;;;;5110973;28;19922;-70
2023/07/10 10:16:53;;;;;;;;;;;23.60;79.30;;;;;;5129151;27;19919;-70
2023/07/10 10:19:22;;;;;;;;;;;23.70;79.10;;;;;;5120375;27;19916;-70
2023/07/10 10:21:48;;;;;;;;;;;23.70;79.10;;;;;;5111472;28;19912;-70
2023/07/10 10:24:13;;;;;;;;;;;23.70;79.00;;;;;;5105298;28;19965;-70
2023/07/10 10:26:53;;;;;;;;;;;23.80;79.00;;;;;;5124369;27;19961;-70
2023/07/10 10:29:18;;;;;;;;;;;23.80;78.60;;;;;;5128172;27;19916;-70
2023/07/10 10:31:57;;;;;;;;;;;23.90;78.90;;;;;;5108779;27;19923;-70
2023/07/10 10:34:44;;;;;;;;;;;23.90;78.90;;;;;;5144159;27;19911;-70
2023/07/10 10:37:25;;;;;;;;;;;23.90;78.70;;;;;;5089282;28;20456;-70
2023/07/10 10:39:54;;;;;;;;;;;23.90;78.90;;;;;;5090901;28;19916;-70
2023/07/10 10:42:33;;;;;;;;;;;23.90;79.10;;;;;;5090096;28;19912;-70
2023/07/10 10:45:02;;;;;;;;;;;23.90;78.30;;;;;;5094942;27;19965;-70
2023/07/10 10:47:35;;;;;;;;;;;24.00;78.50;;;;;;5129775;27;20434;-70
2023/07/10 10:50:04;;;;;;;;;;;24.10;78.00;;;;;;5122073;27;19953;-70
2023/07/10 10:52:29;;;;;;;;;;;24.20;78.20;;;;;;5127938;27;19915;-69
2023/07/10 10:54:58;;;;;;;;;;;24.20;77.30;;;;;;5118209;27;19911;-70
2023/07/10 10:57:32;;;;;;;;;;;24.30;77.50;;;;;;5110541;28;19923;-70
2023/07/10 11:00:06;;;;;;;;;;;24.30;77.60;;;;;;5110836;28;19912;-70
2023/07/10 11:03:10;;;;;;;;;;;24.40;77.80;;;;;;5110628;28;20014;-70
2023/07/10 11:05:38;;;;;;;;;;;24.50;77.10;;;;;;5023606;28;19992;-70
2023/07/10 11:08:08;;;;;;;;;;;24.60;77.20;;;;;;5027051;28;20027;-70
2023/07/10 11:10:36;;;;;;;;;;;24.70;77.20;;;;;;5064059;28;19934;-69
2023/07/10 11:13:03;;;;;;;;;;;24.80;77.10;;;;;;5109915;28;19995;-69
2023/07/10 11:15:29;;;;;;;;;;;24.90;77.00;;;;;;5111812;27;20416;-70
2023/07/10 11:17:56;;;;;;;;;;;25.00;77.10;;;;;;5107363;28;19916;-69
2023/07/10 11:20:23;;;;;;;;;;;25.10;76.30;;;;;;5119785;27;20366;-69
2023/07/10 11:22:56;;;;;;;;;;;25.10;76.00;;;;;;5129637;27;20318;-70
2023/07/10 11:25:32;;;;;;;;;;;25.10;76.70;;;;;;5118809;27;20379;-70
2023/07/10 11:28:02;;;;;;;;;;;25.20;76.00;;;;;;5131211;27;19961;-70
2023/07/10 11:30:33;;;;;;;;;;;25.30;76.30;;;;;;5130993;27;19964;-70
2023/07/10 11:32:58;;;;;;;;;;;25.50;75.30;;;;;;5130937;27;20007;-70
2023/07/10 11:35:25;;;;;;;;;;;25.50;75.50;;;;;;5116537;27;20431;-70
2023/07/10 11:37:50;;;;;;;;;;;25.60;75.70;;;;;;5130965;27;19918;-70
2023/07/10 11:40:28;;;;;;;;;;;25.70;73.50;;;;;;5130867;27;19911;-70
2023/07/10 11:42:54;;;;;;;;;;;25.80;74.80;;;;;;5130597;27;19915;-70
2023/07/10 11:45:25;;;;;;;;;;;25.90;75.60;;;;;;5126974;27;20559;-70
2023/07/10 11:47:52;;;;;;;;;;;26.00;74.90;;;;;;5108157;28;19961;-70
2023/07/10 11:50:25;;;;;;;;;;;26.10;74.30;;;;;;5110071;28;19914;-69
2023/07/10 11:53:09;;;;;;;;;;;26.20;74.60;;;;;;5108498;28;19950;-70
2023/07/10 11:55:42;;;;;;;;;;;26.30;74.90;;;;;;5102646;27;19919;-69
2023/07/10 11:58:10;;;;;;;;;;;26.40;74.50;;;;;;5130791;27;19961;-70
2023/07/10 12:00:36;;;;;;;;;;;26.50;74.30;;;;;;5130387;27;19911;-69
2023/07/10 12:03:01;;;;;;;;;;;26.60;74.30;;;;;;5129057;27;20387;-69
2023/07/10 12:05:30;;;;;;;;;;;26.50;74.40;;;;;;5115204;27;20260;-70
2023/07/10 12:07:57;;;;;;;;;;;26.60;74.30;;;;;;5130305;27;20511;-70
2023/07/10 12:10:24;;;;;;;;;;;26.70;74.20;;;;;;5125855;27;19915;-70
2023/07/10 12:12:50;;;;;;;;;;;26.80;73.80;;;;;;5109410;28;20559;-69
2023/07/10 12:15:15;;;;;;;;;;;26.80;72.90;;;;;;5111288;28;19915;-70
2023/07/10 12:17:41;;;;;;;;;;;26.70;74.40;;;;;;5107205;27;19916;-70
2023/07/10 12:20:20;;;;;;;;;;;26.70;74.10;;;;;;5118453;27;20333;-70
2023/07/10 12:22:45;;;;;;;;;;;26.70;73.20;;;;;;5129703;27;20565;-70
2023/07/10 12:25:13;;;;;;;;;;;26.80;74.30;;;;;;5116284;27;20060;-70
2023/07/10 12:27:39;;;;;;;;;;;26.90;74.50;;;;;;5129904;27;19919;-70
2023/07/10 12:30:13;;;;;;;;;;;26.80;75.00;;;;;;5129960;27;19911;-70
2023/07/10 12:32:38;;;;;;;;;;;26.70;72.50;;;;;;5129786;27;20428;-70
2023/07/10 12:35:11;;;;;;;;;;;26.70;72.60;;;;;;5114498;27;19994;-70
2023/07/10 12:37:37;;;;;;;;;;;26.70;72.70;;;;;;5088739;28;19912;-70
2023/07/10 12:40:03;;;;;;;;;;;26.70;73.00;;;;;;5089003;28;20384;-70
2023/07/10 12:42:31;;;;;;;;;;;26.70;73.70;;;;;;5088795;28;20365;-70
2023/07/10 12:44:57;;;;;;;;;;;26.80;72.10;;;;;;5088867;28;19912;-70
2023/07/10 12:47:22;;;;;;;;;;;26.80;73.20;;;;;;5125472;27;19949;-70
2023/07/10 12:49:54;;;;;;;;;;;26.70;73.80;;;;;;5121398;27;19915;-70
2023/07/10 12:52:20;;;;;;;;;;;26.70;72.50;;;;;;5107978;28;19915;-70
2023/07/10 12:54:47;;;;;;;;;;;26.70;72.60;;;;;;5109306;28;20273;-70
2023/07/10 12:57:24;;;;;;;;;;;26.60;71.20;;;;;;5126088;28;19907;-70
2023/07/10 12:59:54;;;;;;;;;;;26.60;72.20;;;;;;5128888;27;19978;-70
2023/07/10 13:02:24;;;;;;;;;;;26.50;72.20;;;;;;5129346;27;19911;-70
2023/07/10 13:04:53;;;;;;;;;;;26.50;71.40;;;;;;5115586;27;20368;-70
2023/07/10 13:07:20;;;;;;;;;;;26.50;72.20;;;;;;5110473;28;20670;-70
2023/07/10 13:09:52;;;;;;;;;;;26.60;70.80;;;;;;5108007;28;20392;-70
2023/07/10 13:12:22;;;;;;;;;;;26.60;70.70;;;;;;5100368;28;19977;-70
2023/07/10 13:14:48;;;;;;;;;;;26.50;71.20;;;;;;5107919;28;19908;-70
2023/07/10 13:17:13;;;;;;;;;;;26.50;71.40;;;;;;5124231;27;19908;-70
2023/07/10 13:19:39;;;;;;;;;;;26.50;71.40;;;;;;5119114;27;20052;-70
2023/07/10 13:22:09;;;;;;;;;;;26.50;71.10;;;;;;5127938;27;19980;-70
2023/07/10 13:24:36;;;;;;;;;;;26.50;71.90;;;;;;5119169;27;19923;-70
2023/07/10 13:27:02;;;;;;;;;;;26.50;72.10;;;;;;5122439;28;20519;-70
2023/07/10 13:29:27;;;;;;;;;;;26.40;69.50;;;;;;5128288;27;19912;-70
2023/07/10 13:31:53;;;;;;;;;;;26.50;72.10;;;;;;5128473;27;19985;-70
2023/07/10 13:34:18;;;;;;;;;;;26.60;72.20;;;;;;5111467;27;19918;-70
2023/07/10 13:36:44;;;;;;;;;;;26.70;71.90;;;;;;5107719;28;19916;-70
2023/07/10 13:39:11;;;;;;;;;;;26.70;71.10;;;;;;5107696;28;19912;-70
2023/07/10 13:41:37;;;;;;;;;;;26.70;71.30;;;;;;5107784;28;19919;-70
2023/07/10 13:44:02;;;;;;;;;;;26.70;70.90;;;;;;5110719;28;19908;-70
2023/07/10 13:46:29;;;;;;;;;;;26.70;71.20;;;;;;5127878;27;19923;-70
2023/07/10 13:48:56;;;;;;;;;;;26.60;71.50;;;;;;5120771;27;19908;-70
2023/07/10 13:51:23;;;;;;;;;;;26.60;71.10;;;;;;5106668;28;20380;-70
2023/07/10 13:53:49;;;;;;;;;;;26.60;71.90;;;;;;5107040;28;19912;-70
2023/07/10 13:56:16;;;;;;;;;;;26.60;72.10;;;;;;5125195;27;20040;-70
2023/07/10 13:58:42;;;;;;;;;;;26.60;71.80;;;;;;5107639;28;19981;-70
2023/07/10 14:01:08;;;;;;;;;;;26.70;71.60;;;;;;5107619;28;20329;-70
2023/07/10 14:03:35;;;;;;;;;;;26.60;71.00;;;;;;5107079;28;19927;-70
2023/07/10 14:06:01;;;;;;;;;;;26.70;71.50;;;;;;5106926;28;19918;-70
2023/07/10 14:08:28;;;;;;;;;;;26.60;71.50;;;;;;5106988;28;19998;-75
2023/07/10 14:10:54;;;;;;;;;;;26.60;71.40;;;;;;5101762;28;19937;-76
2023/07/10 14:13:20;;;;;;;;;;;26.60;71.10;;;;;;5109544;28;20396;-76
2023/07/10 14:15:51;;;;;;;;;;;26.60;70.60;;;;;;5127782;27;20055;-75
2023/07/10 14:18:21;;;;;;;;;;;26.60;71.30;;;;;;5131337;27;19950;-76